createdAt,value
2017-11-30T00:02:20.219Z,28.63
2017-11-30T00:04:48.318Z,33.67
2017-11-30T00:07:16.620Z,34.83
2017-11-30T00:09:44.782Z,37.37
2017-11-30T00:12:13.508Z,31.00
2017-11-30T00:14:41.637Z,31.03
2017-11-30T00:17:09.737Z,41.20
2017-11-30T00:19:37.860Z,31.60
2017-11-30T00:22:07.225Z,37.33
2017-11-30T00:24:36.166Z,28.30
2017-11-30T00:27:04.513Z,31.17
2017-11-30T00:29:32.601Z,29.97
2017-11-30T00:32:00.709Z,33.67
2017-11-30T00:34:28.811Z,30.03
2017-11-30T00:36:56.929Z,33.57
2017-11-30T00:39:25.005Z,30.37
2017-11-30T00:41:53.103Z,30.90
2017-11-30T00:44:32.920Z,31.23
2017-11-30T00:47:01.016Z,35.70
2017-11-30T00:49:29.105Z,35.40
2017-11-30T00:51:57.184Z,36.00
2017-11-30T00:54:25.294Z,34.43
2017-11-30T00:56:53.370Z,27.57
2017-11-30T00:59:21.457Z,31.90
2017-11-30T01:01:49.699Z,31.47
2017-11-30T01:04:17.786Z,27.47
2017-11-30T01:06:45.871Z,33.10
2017-11-30T01:09:13.965Z,29.50
2017-11-30T01:11:42.058Z,34.10
2017-11-30T01:14:10.297Z,30.47
2017-11-30T01:16:38.673Z,33.53
2017-11-30T01:19:06.757Z,32.20
2017-11-30T01:21:34.839Z,33.33
2017-11-30T01:24:02.916Z,32.27
2017-11-30T01:26:31.024Z,38.23
2017-11-30T01:29:00.006Z,38.97
2017-11-30T01:31:28.180Z,36.23
2017-11-30T01:33:57.253Z,39.27
2017-11-30T01:36:25.327Z,33.30
2017-11-30T01:38:53.417Z,34.00
2017-11-30T01:41:21.497Z,34.27
2017-11-30T01:43:49.624Z,36.80
2017-11-30T01:46:17.714Z,42.97
2017-11-30T01:48:45.782Z,33.83
2017-11-30T01:51:14.212Z,33.27
2017-11-30T01:53:42.377Z,38.70
2017-11-30T01:56:10.497Z,43.63
2017-11-30T01:58:38.580Z,41.93
2017-11-30T02:01:06.682Z,38.77
2017-11-30T02:03:34.793Z,33.63
2017-11-30T02:06:03.393Z,40.83
2017-11-30T02:08:31.658Z,43.30
2017-11-30T02:10:59.728Z,40.57
2017-11-30T02:13:28.005Z,43.93
2017-11-30T02:15:56.098Z,38.30
2017-11-30T02:18:24.205Z,34.63
2017-11-30T02:20:52.511Z,41.83
2017-11-30T02:23:20.662Z,41.27
2017-11-30T02:25:48.776Z,49.67
2017-11-30T02:28:17.068Z,43.90
2017-11-30T02:30:45.381Z,44.10
2017-11-30T02:33:13.489Z,48.17
2017-11-30T02:35:41.584Z,39.33
2017-11-30T02:38:09.829Z,44.93
2017-11-30T02:40:38.771Z,46.13
2017-11-30T02:43:06.863Z,54.20
2017-11-30T02:45:34.976Z,50.13
2017-11-30T02:48:03.058Z,50.10
2017-11-30T02:50:31.468Z,56.67
2017-11-30T02:52:59.536Z,61.80
2017-11-30T02:55:27.654Z,63.43
2017-11-30T02:57:55.749Z,67.33
2017-11-30T03:00:23.977Z,79.33
2017-11-30T03:02:52.081Z,75.43
2017-11-30T03:05:20.928Z,84.20
2017-11-30T03:07:50.216Z,90.60
2017-11-30T03:10:18.296Z,86.40
2017-11-30T03:12:46.450Z,95.80
2017-11-30T03:15:14.516Z,89.53
2017-11-30T03:17:44.041Z,86.07
2017-11-30T03:20:12.241Z,93.17
2017-11-30T03:22:41.286Z,82.57
2017-11-30T03:25:10.213Z,89.07
2017-11-30T03:27:38.308Z,97.33
2017-11-30T03:30:07.154Z,99.70
2017-11-30T03:32:35.228Z,115.73
2017-11-30T03:35:03.590Z,103.43
2017-11-30T03:37:31.672Z,118.17
2017-11-30T03:39:59.816Z,104.73
2017-11-30T03:42:27.930Z,128.77
2017-11-30T03:44:57.142Z,134.93
2017-11-30T03:47:25.377Z,132.83
2017-11-30T03:49:54.118Z,143.83
2017-11-30T03:52:22.249Z,134.57
2017-11-30T03:54:50.344Z,132.33
2017-11-30T03:57:18.459Z,145.50
2017-11-30T03:59:46.674Z,167.63
2017-11-30T04:02:15.129Z,144.50
2017-11-30T04:04:43.228Z,160.77
2017-11-30T04:07:11.308Z,169.30
2017-11-30T04:09:39.564Z,163.83
2017-11-30T04:12:08.416Z,143.80
2017-11-30T04:14:37.284Z,155.90
2017-11-30T04:17:05.365Z,151.10
2017-11-30T04:19:33.522Z,150.77
2017-11-30T04:22:01.742Z,129.77
2017-11-30T04:24:29.790Z,148.90
2017-11-30T04:26:57.885Z,161.43
2017-11-30T04:29:25.997Z,167.80
2017-11-30T04:31:55.222Z,156.10
2017-11-30T04:34:23.385Z,165.03
2017-11-30T04:36:51.504Z,155.63
2017-11-30T04:39:19.673Z,168.40
2017-11-30T04:41:47.793Z,173.97
2017-11-30T04:44:16.369Z,156.60
2017-11-30T04:46:44.452Z,141.63
2017-11-30T04:49:12.553Z,145.60
2017-11-30T04:51:40.665Z,177.57
2017-11-30T04:54:08.733Z,148.23
2017-11-30T04:56:36.841Z,160.33
2017-11-30T04:59:04.917Z,162.87
2017-11-30T05:01:33.041Z,161.23
2017-11-30T05:04:01.175Z,165.37
2017-11-30T05:06:29.242Z,156.93
2017-11-30T05:08:57.342Z,154.07
2017-11-30T05:11:26.246Z,148.07
2017-11-30T05:13:54.513Z,145.00
2017-11-30T05:16:23.365Z,152.53
2017-11-30T05:18:51.468Z,169.13
2017-11-30T05:21:20.328Z,141.87
2017-11-30T05:23:48.533Z,146.13
2017-11-30T05:26:17.060Z,160.97
2017-11-30T05:28:45.372Z,150.80
2017-11-30T05:31:13.461Z,144.60
2017-11-30T05:33:41.545Z,148.07
2017-11-30T05:36:10.384Z,152.90
2017-11-30T05:38:38.541Z,160.53
2017-11-30T05:41:06.733Z,146.90
2017-11-30T05:43:34.822Z,150.27
2017-11-30T05:46:02.964Z,159.10
2017-11-30T05:48:31.051Z,142.67
2017-11-30T05:50:59.134Z,137.83
2017-11-30T05:53:27.233Z,159.37
2017-11-30T05:55:55.302Z,139.57
2017-11-30T05:58:23.401Z,155.83
2017-11-30T06:00:51.508Z,152.60
2017-11-30T06:03:19.581Z,173.63
2017-11-30T06:05:47.813Z,178.37
2017-11-30T06:08:17.033Z,156.13
2017-11-30T06:10:45.137Z,174.97
2017-11-30T06:13:13.212Z,173.47
2017-11-30T06:15:41.309Z,178.50
2017-11-30T06:18:09.449Z,169.63
2017-11-30T06:20:37.532Z,166.83
2017-11-30T06:23:05.662Z,208.77
2017-11-30T06:25:33.735Z,176.87
2017-11-30T06:28:01.849Z,220.73
2017-11-30T06:30:30.105Z,195.10
2017-11-30T06:32:58.857Z,183.80
2017-11-30T06:35:27.698Z,232.70
2017-11-30T06:37:55.820Z,228.00
2017-11-30T06:40:24.665Z,197.37
2017-11-30T06:42:52.769Z,208.87
2017-11-30T06:45:21.614Z,213.90
2017-11-30T06:47:49.814Z,225.10
2017-11-30T06:50:18.048Z,219.73
2017-11-30T06:52:46.143Z,201.70
2017-11-30T06:55:14.233Z,200.70
2017-11-30T06:57:42.345Z,195.67
2017-11-30T07:00:10.504Z,190.33
2017-11-30T07:02:39.357Z,211.57
2017-11-30T07:05:07.449Z,181.03
2017-11-30T07:07:35.528Z,211.63
2017-11-30T07:10:04.369Z,195.23
2017-11-30T07:12:32.464Z,216.90
2017-11-30T07:15:01.557Z,199.77
2017-11-30T07:17:29.645Z,208.60
2017-11-30T07:19:57.789Z,201.67
2017-11-30T07:22:25.898Z,204.97
2017-11-30T07:24:54.251Z,192.13
2017-11-30T07:27:22.464Z,204.17
2017-11-30T07:29:51.886Z,186.17
2017-11-30T07:32:20.726Z,193.40
2017-11-30T07:34:48.982Z,200.10
2017-11-30T07:37:17.177Z,207.97
2017-11-30T07:39:45.468Z,200.10
2017-11-30T07:42:13.546Z,186.97
2017-11-30T07:44:41.642Z,190.37
2017-11-30T07:47:10.481Z,182.83
2017-11-30T07:49:38.609Z,170.17
2017-11-30T07:52:07.453Z,185.47
2017-11-30T07:54:35.564Z,195.27
2017-11-30T07:57:05.118Z,188.77
2017-11-30T07:59:33.211Z,219.90
2017-11-30T08:02:01.684Z,204.97
2017-11-30T08:04:29.872Z,196.70
2017-11-30T08:06:57.973Z,183.23
2017-11-30T08:09:27.040Z,174.10
2017-11-30T08:11:55.112Z,168.57
2017-11-30T08:14:23.573Z,182.10
2017-11-30T08:16:51.679Z,195.00
2017-11-30T08:19:20.567Z,178.60
2017-11-30T08:21:48.661Z,187.73
2017-11-30T08:24:16.773Z,197.63
2017-11-30T08:26:44.865Z,172.87
2017-11-30T08:29:13.339Z,171.30
2017-11-30T08:31:42.419Z,163.67
2017-11-30T08:34:11.720Z,172.50
2017-11-30T08:36:39.851Z,151.60
2017-11-30T08:39:09.132Z,164.40
2017-11-30T08:41:37.434Z,162.70
2017-11-30T08:44:05.533Z,157.60
2017-11-30T08:46:33.658Z,147.40
2017-11-30T08:49:01.732Z,134.33
2017-11-30T08:51:29.935Z,151.73
2017-11-30T08:53:58.006Z,160.27
2017-11-30T08:56:26.294Z,127.77
2017-11-30T08:58:54.376Z,134.67
2017-11-30T09:01:22.504Z,139.80
2017-11-30T09:03:51.401Z,127.70
2017-11-30T09:06:19.505Z,138.53
2017-11-30T09:08:47.589Z,145.10
2017-11-30T09:11:15.672Z,131.77
2017-11-30T09:13:43.853Z,136.27
2017-11-30T09:16:11.953Z,148.00
2017-11-30T09:18:40.036Z,139.53
2017-11-30T09:21:08.897Z,132.50
2017-11-30T09:23:37.005Z,127.60
2017-11-30T09:26:05.872Z,127.57
2017-11-30T09:28:33.968Z,130.27
2017-11-30T09:31:02.067Z,112.70
2017-11-30T09:33:30.158Z,121.13
2017-11-30T09:35:58.254Z,116.67
2017-11-30T09:38:26.388Z,116.90
2017-11-30T09:40:54.461Z,98.57
2017-11-30T09:43:22.637Z,131.47
2017-11-30T09:45:50.733Z,96.13
2017-11-30T09:48:18.873Z,88.40
2017-11-30T09:50:46.958Z,89.73
2017-11-30T09:53:15.049Z,84.90
2017-11-30T09:55:43.141Z,87.63
2017-11-30T09:58:11.300Z,77.90
2017-11-30T10:00:39.430Z,90.47
2017-11-30T10:03:07.950Z,85.93
2017-11-30T10:05:36.023Z,88.40
2017-11-30T10:08:04.116Z,87.20
2017-11-30T10:10:32.192Z,89.93
2017-11-30T10:13:00.326Z,86.70
2017-11-30T10:15:28.416Z,84.67
2017-11-30T10:17:56.486Z,79.83
2017-11-30T10:20:24.657Z,73.27
2017-11-30T10:22:52.745Z,73.97
2017-11-30T10:25:20.817Z,77.70
2017-11-30T10:27:48.909Z,85.83
2017-11-30T10:30:17.142Z,86.80
2017-11-30T10:32:45.357Z,77.60
2017-11-30T10:35:13.443Z,78.83
2017-11-30T10:37:41.553Z,82.37
2017-11-30T10:40:09.848Z,83.10
2017-11-30T10:42:37.998Z,79.23
2017-11-30T10:45:06.156Z,81.47
2017-11-30T10:47:34.631Z,75.77
2017-11-30T10:50:03.916Z,75.97
2017-11-30T10:52:32.040Z,67.60
2017-11-30T10:55:00.177Z,70.10
2017-11-30T10:57:28.268Z,66.00
2017-11-30T10:59:56.333Z,65.43
2017-11-30T11:02:25.193Z,66.17
2017-11-30T11:04:53.530Z,67.30
2017-11-30T11:07:21.672Z,76.73
2017-11-30T11:09:49.764Z,71.47
2017-11-30T11:12:17.838Z,62.67
2017-11-30T11:14:45.937Z,67.60
2017-11-30T11:17:14.020Z,61.73
2017-11-30T11:19:42.269Z,68.60
2017-11-30T11:22:10.388Z,65.73
2017-11-30T11:24:38.473Z,64.67
2017-11-30T11:27:06.563Z,68.27
2017-11-30T11:29:34.650Z,55.83
2017-11-30T11:32:02.917Z,59.33
2017-11-30T11:34:31.001Z,66.23
2017-11-30T11:36:59.493Z,67.00
2017-11-30T11:39:27.576Z,56.00
2017-11-30T11:41:55.653Z,59.27
2017-11-30T11:44:23.741Z,66.40
2017-11-30T11:46:52.606Z,65.50
2017-11-30T11:49:20.672Z,55.17
2017-11-30T11:51:48.753Z,56.20
2017-11-30T11:54:16.845Z,56.00
2017-11-30T11:56:45.010Z,51.77
2017-11-30T11:59:14.029Z,53.83
2017-11-30T12:01:42.274Z,57.00
2017-11-30T12:04:10.548Z,54.77
2017-11-30T12:06:38.625Z,47.00
2017-11-30T12:09:06.885Z,46.10
2017-11-30T12:11:35.025Z,45.87
2017-11-30T12:14:03.117Z,47.37
2017-11-30T12:16:31.189Z,54.00
2017-11-30T12:18:59.285Z,44.47
2017-11-30T12:21:27.362Z,41.33
2017-11-30T12:23:55.451Z,46.13
2017-11-30T12:26:23.529Z,38.50
2017-11-30T12:28:52.398Z,37.83
2017-11-30T12:31:20.484Z,45.40
2017-11-30T12:33:48.572Z,45.03
2017-11-30T12:36:16.676Z,44.00
2017-11-30T12:38:44.781Z,37.60
2017-11-30T12:41:13.164Z,40.90
2017-11-30T12:43:41.289Z,35.37
2017-11-30T12:46:09.357Z,35.00
2017-11-30T12:48:37.520Z,36.30
2017-11-30T12:51:05.635Z,34.17
2017-11-30T12:53:33.997Z,36.57
2017-11-30T12:56:02.082Z,39.13
2017-11-30T12:58:30.253Z,34.33
2017-11-30T13:00:59.396Z,34.30
2017-11-30T13:03:27.584Z,35.50
2017-11-30T13:05:55.659Z,32.37
2017-11-30T13:08:24.080Z,32.90
2017-11-30T13:10:52.175Z,37.97
2017-11-30T13:13:20.901Z,31.07
2017-11-30T13:15:49.022Z,29.03
2017-11-30T13:18:17.148Z,30.67
2017-11-30T13:20:45.243Z,29.97
2017-11-30T13:23:13.471Z,35.13
2017-11-30T13:25:42.408Z,31.67
2017-11-30T13:28:10.509Z,30.13
2017-11-30T13:30:38.595Z,36.37
2017-11-30T13:33:06.723Z,28.40
2017-11-30T13:35:34.836Z,37.63
2017-11-30T13:38:03.045Z,30.80
2017-11-30T13:40:31.129Z,27.97
2017-11-30T13:42:59.206Z,33.13
2017-11-30T13:45:27.322Z,33.00
2017-11-30T13:47:56.640Z,22.30
2017-11-30T13:50:24.879Z,25.87
2017-11-30T13:52:53.019Z,24.50
2017-11-30T13:55:21.227Z,29.53
2017-11-30T13:57:49.335Z,27.33
2017-11-30T14:00:17.519Z,25.57
2017-11-30T14:02:46.425Z,21.77
2017-11-30T14:05:14.524Z,27.03
2017-11-30T14:07:42.591Z,27.97
2017-11-30T14:10:10.738Z,28.07
2017-11-30T14:12:39.571Z,23.77
2017-11-30T14:15:07.705Z,22.67
2017-11-30T14:17:36.236Z,24.07
2017-11-30T14:20:04.330Z,26.03
2017-11-30T14:22:32.413Z,20.90
2017-11-30T14:25:01.303Z,21.77
2017-11-30T14:27:30.209Z,23.07
2017-11-30T14:29:59.230Z,24.90
2017-11-30T14:32:27.320Z,26.53
2017-11-30T14:34:55.628Z,27.50
2017-11-30T14:37:23.744Z,26.60
2017-11-30T14:39:51.925Z,24.70
2017-11-30T14:42:20.025Z,32.63
2017-11-30T14:44:48.292Z,25.70
2017-11-30T14:47:16.440Z,25.53
2017-11-30T14:49:44.568Z,23.70
2017-11-30T14:52:12.829Z,24.30
2017-11-30T14:54:40.909Z,22.20
2017-11-30T14:57:09.060Z,22.13
2017-11-30T14:59:37.203Z,24.90
2017-11-30T15:02:05.279Z,22.33
2017-11-30T15:04:33.693Z,25.17
2017-11-30T15:07:01.875Z,25.10
2017-11-30T15:09:30.443Z,22.70
2017-11-30T15:11:58.553Z,24.63
2017-11-30T15:14:26.683Z,27.33
2017-11-30T15:16:55.792Z,27.80
2017-11-30T15:19:24.198Z,26.33
2017-11-30T15:21:52.271Z,28.17
2017-11-30T15:24:20.543Z,28.80
2017-11-30T15:26:48.628Z,25.33
2017-11-30T15:29:17.479Z,31.20
2017-11-30T15:31:45.565Z,28.30
2017-11-30T15:34:13.719Z,26.77
2017-11-30T15:36:41.807Z,28.00
2017-11-30T15:39:09.907Z,32.03
2017-11-30T15:41:38.752Z,34.83
2017-11-30T15:44:06.984Z,38.77
2017-11-30T15:46:35.068Z,31.03
2017-11-30T15:49:03.144Z,30.20
2017-11-30T15:51:31.271Z,40.30
2017-11-30T15:54:00.036Z,51.33
2017-11-30T15:56:28.215Z,34.87
2017-11-30T15:58:56.483Z,38.33
2017-11-30T16:01:24.622Z,32.83
2017-11-30T16:03:52.783Z,36.77
2017-11-30T16:06:20.862Z,33.23
2017-11-30T16:08:49.695Z,41.20
2017-11-30T16:11:18.358Z,50.40
2017-11-30T16:13:46.436Z,35.70
2017-11-30T16:16:15.119Z,40.13
2017-11-30T16:18:44.011Z,37.63
2017-11-30T16:21:12.133Z,37.67
2017-11-30T16:23:40.241Z,41.07
2017-11-30T16:26:08.332Z,34.40
2017-11-30T16:28:36.404Z,38.33
2017-11-30T16:31:04.508Z,37.10
2017-11-30T16:33:32.589Z,37.03
2017-11-30T16:36:00.686Z,38.57
2017-11-30T16:38:28.775Z,40.40
2017-11-30T16:40:56.943Z,32.80
2017-11-30T16:43:25.047Z,33.90
2017-11-30T16:45:53.224Z,37.50
2017-11-30T16:48:21.303Z,37.83
2017-11-30T16:50:49.387Z,42.40
2017-11-30T16:53:17.564Z,37.17
2017-11-30T16:55:45.632Z,36.57
2017-11-30T16:58:13.723Z,32.23
2017-11-30T17:00:41.813Z,34.63
2017-11-30T17:03:10.657Z,37.60
2017-11-30T17:05:39.076Z,34.43
2017-11-30T17:08:08.157Z,35.17
2017-11-30T17:10:36.924Z,35.03
2017-11-30T17:13:05.016Z,35.83
2017-11-30T17:15:33.317Z,38.83
2017-11-30T17:18:03.161Z,37.30
2017-11-30T17:20:31.233Z,37.80
2017-11-30T17:23:01.297Z,37.87
2017-11-30T17:25:29.401Z,38.47
2017-11-30T17:27:57.499Z,44.43
2017-11-30T17:30:25.594Z,40.20
2017-11-30T17:32:53.666Z,38.50
2017-11-30T17:35:21.752Z,39.10
2017-11-30T17:37:49.823Z,41.47
2017-11-30T17:40:18.009Z,43.27
2017-11-30T17:42:46.071Z,39.57
2017-11-30T17:45:14.182Z,33.97
2017-11-30T17:47:42.252Z,31.17
2017-11-30T17:50:10.397Z,32.93
2017-11-30T17:52:38.536Z,34.13
2017-11-30T17:55:06.607Z,27.97
2017-11-30T17:57:34.764Z,45.00
2017-11-30T18:00:02.835Z,31.27
2017-11-30T18:02:30.926Z,27.53
2017-11-30T18:04:59.041Z,30.03
2017-11-30T18:07:27.895Z,28.27
2017-11-30T18:09:55.981Z,27.30
2017-11-30T18:12:24.068Z,27.70
2017-11-30T18:14:52.140Z,30.67
2017-11-30T18:17:21.011Z,30.90
2017-11-30T18:19:49.099Z,26.17
2017-11-30T18:22:17.204Z,27.57
2017-11-30T18:24:45.305Z,29.63
2017-11-30T18:27:13.390Z,29.93
2017-11-30T18:29:41.470Z,32.97
2017-11-30T18:32:09.560Z,31.57
2017-11-30T18:34:37.651Z,33.67
2017-11-30T18:37:06.502Z,33.80
2017-11-30T18:39:34.614Z,32.60
2017-11-30T18:42:02.696Z,33.70
2017-11-30T18:44:30.792Z,32.33
2017-11-30T18:46:58.880Z,36.70
2017-11-30T18:49:26.993Z,35.87
2017-11-30T18:51:55.855Z,35.60
2017-11-30T18:54:23.935Z,30.10
2017-11-30T18:56:52.036Z,33.70
2017-11-30T18:59:20.944Z,33.07
2017-11-30T19:01:49.025Z,32.67
2017-11-30T19:04:17.124Z,36.00
2017-11-30T19:06:45.202Z,36.47
2017-11-30T19:09:13.291Z,39.70
2017-11-30T19:11:41.408Z,39.40
2017-11-30T19:14:09.518Z,39.57
2017-11-30T19:16:37.589Z,40.23
2017-11-30T19:19:05.712Z,46.27
2017-11-30T19:21:33.814Z,46.57
2017-11-30T19:24:01.928Z,49.57
2017-11-30T19:26:30.081Z,46.40
2017-11-30T19:28:58.193Z,38.90
2017-11-30T19:31:27.051Z,79.10
2017-11-30T19:33:55.167Z,39.37
2017-11-30T19:36:24.206Z,40.33
2017-11-30T19:38:52.323Z,36.07
2017-11-30T19:41:21.180Z,39.70
2017-11-30T19:43:49.269Z,42.80
2017-11-30T19:46:17.415Z,37.60
2017-11-30T19:48:45.511Z,38.67
2017-11-30T19:51:13.583Z,38.83
2017-11-30T19:53:41.700Z,46.77
2017-11-30T19:56:09.780Z,47.00
2017-11-30T19:58:38.037Z,41.27
2017-11-30T20:01:06.230Z,70.07
2017-11-30T20:03:34.291Z,46.50
2017-11-30T20:06:02.448Z,41.37
2017-11-30T20:08:31.303Z,43.70
2017-11-30T20:10:59.451Z,58.40
2017-11-30T20:13:27.527Z,48.70
2017-11-30T20:15:55.612Z,45.77
2017-11-30T20:18:23.703Z,57.77
2017-11-30T20:20:52.688Z,41.10
2017-11-30T20:23:20.792Z,40.73
2017-11-30T20:25:49.057Z,46.20
2017-11-30T20:28:18.336Z,49.00
2017-11-30T20:30:46.419Z,43.63
2017-11-30T20:33:14.509Z,48.40
2017-11-30T20:35:43.376Z,44.10
2017-11-30T20:38:11.450Z,41.50
2017-11-30T20:40:39.559Z,44.23
2017-11-30T20:43:07.698Z,51.83
2017-11-30T20:45:35.795Z,40.97
2017-11-30T20:48:03.875Z,40.67
2017-11-30T20:50:32.024Z,39.20
2017-11-30T20:53:00.170Z,42.00
2017-11-30T20:55:28.254Z,39.70
2017-11-30T20:57:56.348Z,33.63
2017-11-30T21:00:25.229Z,37.57
2017-11-30T21:02:53.353Z,33.87
2017-11-30T21:05:21.431Z,30.40
2017-11-30T21:07:49.542Z,33.87
2017-11-30T21:10:17.627Z,33.73
2017-11-30T21:12:46.529Z,35.00
2017-11-30T21:15:14.649Z,34.77
2017-11-30T21:17:42.743Z,37.87
2017-11-30T21:20:10.838Z,35.80
2017-11-30T21:22:39.927Z,49.23
2017-11-30T21:25:08.796Z,38.90
2017-11-30T21:27:37.071Z,34.50
2017-11-30T21:30:05.192Z,37.23
2017-11-30T21:32:33.303Z,35.43
2017-11-30T21:35:01.457Z,34.47
2017-11-30T21:37:29.555Z,42.73
2017-11-30T21:39:57.672Z,33.13
2017-11-30T21:42:26.582Z,36.27
2017-11-30T21:44:55.428Z,36.40
2017-11-30T21:47:23.515Z,39.20
2017-11-30T21:49:52.404Z,32.70
2017-11-30T21:52:20.481Z,35.20
2017-11-30T21:54:48.555Z,34.60
2017-11-30T21:57:16.704Z,38.10
2017-11-30T21:59:44.801Z,50.10
2017-11-30T22:02:13.664Z,45.10
2017-11-30T22:04:41.744Z,48.60
2017-11-30T22:07:09.861Z,38.03
2017-11-30T22:09:37.935Z,36.53
2017-11-30T22:12:06.112Z,40.00
2017-11-30T22:14:34.228Z,44.70
2017-11-30T22:17:02.344Z,38.63
2017-11-30T22:19:30.455Z,38.10
2017-11-30T22:21:59.486Z,39.03
2017-11-30T22:24:28.631Z,38.77
2017-11-30T22:26:57.168Z,40.03
2017-11-30T22:29:25.300Z,42.50
2017-11-30T22:31:53.375Z,39.63
2017-11-30T22:34:21.529Z,35.20
2017-11-30T22:36:49.619Z,39.40
2017-11-30T22:39:17.720Z,45.60
2017-11-30T22:41:45.791Z,37.83
2017-11-30T22:44:13.909Z,40.40
2017-11-30T22:46:41.986Z,45.10
2017-11-30T22:49:10.063Z,46.47
2017-11-30T22:51:38.152Z,44.13
2017-11-30T22:54:06.226Z,45.70
2017-11-30T22:56:34.314Z,49.93
2017-11-30T22:59:02.600Z,47.20
2017-11-30T23:01:31.206Z,50.00
2017-11-30T23:04:01.103Z,44.60
2017-11-30T23:06:29.999Z,47.33
2017-11-30T23:08:58.863Z,47.80
2017-11-30T23:11:27.285Z,50.73
2017-11-30T23:13:56.208Z,49.20
2017-11-30T23:16:24.299Z,51.60
2017-11-30T23:18:52.463Z,48.10
2017-11-30T23:21:20.574Z,46.60
2017-11-30T23:23:49.597Z,55.83
2017-11-30T23:26:17.776Z,46.33
2017-11-30T23:28:46.881Z,47.23
2017-11-30T23:31:14.993Z,48.80
2017-11-30T23:33:44.208Z,58.20
2017-11-30T23:36:12.297Z,48.77
2017-11-30T23:38:41.460Z,53.10
2017-11-30T23:41:09.670Z,45.80
2017-11-30T23:43:37.756Z,60.93
2017-11-30T23:46:05.854Z,51.77
2017-11-30T23:48:33.960Z,58.23
2017-11-30T23:51:02.045Z,56.43
2017-11-30T23:53:30.123Z,61.40
2017-11-30T23:55:58.991Z,58.80
2017-11-30T23:58:27.151Z,64.50
